sensor_id;sensor_type;location;lat;lon;timestamp;P1;durP1;ratioP1;P2;durP2;ratioP2
36353;SDS011;22383;51.114;13.666;2023-12-28T00:02:22;7.97;;;3.55;;
36353;SDS011;22383;51.114;13.666;2023-12-28T00:04:49;8.98;;;3.35;;
36353;SDS011;22383;51.114;13.666;2023-12-28T00:07:16;10.30;;;3.60;;
36353;SDS011;22383;51.114;13.666;2023-12-28T00:09:43;8.75;;;3.97;;
36353;SDS011;22383;51.114;13.666;2023-12-28T00:12:10;10.05;;;3.95;;
36353;SDS011;22383;51.114;13.666;2023-12-28T00:14:38;12.38;;;4.20;;
36353;SDS011;22383;51.114;13.666;2023-12-28T00:17:05;14.88;;;3.95;;
36353;SDS011;22383;51.114;13.666;2023-12-28T00:19:32;11.65;;;3.53;;
36353;SDS011;22383;51.114;13.666;2023-12-28T00:22:00;14.18;;;4.18;;
36353;SDS011;22383;51.114;13.666;2023-12-28T00:24:27;13.80;;;3.83;;
36353;SDS011;22383;51.114;13.666;2023-12-28T00:26:54;9.30;;;4.07;;
36353;SDS011;22383;51.114;13.666;2023-12-28T00:29:21;10.27;;;3.63;;
36353;SDS011;22383;51.114;13.666;2023-12-28T00:31:48;5.97;;;3.53;;
36353;SDS011;22383;51.114;13.666;2023-12-28T00:34:16;9.43;;;3.80;;
36353;SDS011;22383;51.114;13.666;2023-12-28T00:36:43;7.60;;;3.50;;
36353;SDS011;22383;51.114;13.666;2023-12-28T00:39:11;14.70;;;4.55;;
36353;SDS011;22383;51.114;13.666;2023-12-28T00:41:38;9.38;;;3.00;;
36353;SDS011;22383;51.114;13.666;2023-12-28T00:44:05;8.00;;;3.10;;
36353;SDS011;22383;51.114;13.666;2023-12-28T00:46:36;9.73;;;3.00;;
36353;SDS011;22383;51.114;13.666;2023-12-28T00:49:05;7.60;;;3.05;;
36353;SDS011;22383;51.114;13.666;2023-12-28T00:51:33;7.20;;;2.58;;
36353;SDS011;22383;51.114;13.666;2023-12-28T00:54:01;7.45;;;2.50;;
36353;SDS011;22383;51.114;13.666;2023-12-28T00:56:28;5.18;;;2.72;;
36353;SDS011;22383;51.114;13.666;2023-12-28T00:58:55;4.93;;;2.22;;
36353;SDS011;22383;51.114;13.666;2023-12-28T01:01:23;3.80;;;2.00;;
36353;SDS011;22383;51.114;13.666;2023-12-28T01:03:50;4.32;;;2.15;;
36353;SDS011;22383;51.114;13.666;2023-12-28T01:06:19;5.57;;;2.28;;
36353;SDS011;22383;51.114;13.666;2023-12-28T01:08:46;4.95;;;1.90;;
36353;SDS011;22383;51.114;13.666;2023-12-28T01:11:13;6.63;;;2.42;;
36353;SDS011;22383;51.114;13.666;2023-12-28T01:13:40;3.43;;;2.00;;
36353;SDS011;22383;51.114;13.666;2023-12-28T01:16:08;3.67;;;2.10;;
36353;SDS011;22383;51.114;13.666;2023-12-28T01:18:35;4.60;;;2.53;;
36353;SDS011;22383;51.114;13.666;2023-12-28T01:21:03;6.88;;;2.22;;
36353;SDS011;22383;51.114;13.666;2023-12-28T01:23:31;7.40;;;2.00;;
36353;SDS011;22383;51.114;13.666;2023-12-28T01:25:59;5.80;;;2.15;;
36353;SDS011;22383;51.114;13.666;2023-12-28T01:28:26;5.43;;;1.92;;
36353;SDS011;22383;51.114;13.666;2023-12-28T01:30:54;11.05;;;2.20;;
36353;SDS011;22383;51.114;13.666;2023-12-28T01:33:21;3.03;;;1.58;;
36353;SDS011;22383;51.114;13.666;2023-12-28T01:35:49;2.40;;;1.50;;
36353;SDS011;22383;51.114;13.666;2023-12-28T01:38:16;2.97;;;1.73;;
36353;SDS011;22383;51.114;13.666;2023-12-28T01:40:44;2.30;;;1.45;;
36353;SDS011;22383;51.114;13.666;2023-12-28T01:43:12;4.75;;;1.80;;
36353;SDS011;22383;51.114;13.666;2023-12-28T01:45:40;3.60;;;1.50;;
36353;SDS011;22383;51.114;13.666;2023-12-28T01:48:07;4.00;;;1.35;;
36353;SDS011;22383;51.114;13.666;2023-12-28T01:50:35;3.80;;;1.75;;
36353;SDS011;22383;51.114;13.666;2023-12-28T01:53:03;6.75;;;1.60;;
36353;SDS011;22383;51.114;13.666;2023-12-28T01:55:30;3.20;;;1.50;;
36353;SDS011;22383;51.114;13.666;2023-12-28T01:57:59;3.45;;;1.52;;
36353;SDS011;22383;51.114;13.666;2023-12-28T02:02:54;2.53;;;1.25;;
36353;SDS011;22383;51.114;13.666;2023-12-28T02:05:22;2.58;;;1.25;;
36353;SDS011;22383;51.114;13.666;2023-12-28T02:07:49;1.92;;;1.17;;
36353;SDS011;22383;51.114;13.666;2023-12-28T02:10:17;2.13;;;1.42;;
36353;SDS011;22383;51.114;13.666;2023-12-28T02:12:44;2.72;;;1.30;;
36353;SDS011;22383;51.114;13.666;2023-12-28T02:15:11;4.13;;;1.25;;
36353;SDS011;22383;51.114;13.666;2023-12-28T02:20:13;2.90;;;1.33;;
36353;SDS011;22383;51.114;13.666;2023-12-28T02:22:42;4.13;;;1.20;;
36353;SDS011;22383;51.114;13.666;2023-12-28T02:25:10;3.70;;;1.33;;
36353;SDS011;22383;51.114;13.666;2023-12-28T02:27:43;3.25;;;1.38;;
36353;SDS011;22383;51.114;13.666;2023-12-28T02:30:16;2.08;;;1.25;;
36353;SDS011;22383;51.114;13.666;2023-12-28T02:35:57;4.65;;;1.10;;
36353;SDS011;22383;51.114;13.666;2023-12-28T02:38:27;2.70;;;1.30;;
36353;SDS011;22383;51.114;13.666;2023-12-28T02:40:56;3.92;;;1.13;;
36353;SDS011;22383;51.114;13.666;2023-12-28T02:43:24;3.95;;;1.15;;
36353;SDS011;22383;51.114;13.666;2023-12-28T02:45:51;1.65;;;1.00;;
36353;SDS011;22383;51.114;13.666;2023-12-28T02:48:19;1.58;;;1.20;;
36353;SDS011;22383;51.114;13.666;2023-12-28T02:50:46;2.45;;;1.52;;
36353;SDS011;22383;51.114;13.666;2023-12-28T02:53:14;2.58;;;1.27;;
36353;SDS011;22383;51.114;13.666;2023-12-28T02:55:41;1.77;;;1.27;;
36353;SDS011;22383;51.114;13.666;2023-12-28T02:58:08;2.53;;;1.42;;
36353;SDS011;22383;51.114;13.666;2023-12-28T03:00:36;2.60;;;1.50;;
36353;SDS011;22383;51.114;13.666;2023-12-28T03:03:03;2.28;;;1.10;;
36353;SDS011;22383;51.114;13.666;2023-12-28T03:05:30;2.13;;;1.20;;
36353;SDS011;22383;51.114;13.666;2023-12-28T03:07:57;3.30;;;1.10;;
36353;SDS011;22383;51.114;13.666;2023-12-28T03:10:25;2.47;;;1.30;;
36353;SDS011;22383;51.114;13.666;2023-12-28T03:12:52;1.15;;;0.70;;
36353;SDS011;22383;51.114;13.666;2023-12-28T03:15:19;1.55;;;0.73;;
36353;SDS011;22383;51.114;13.666;2023-12-28T03:17:47;1.20;;;0.85;;
36353;SDS011;22383;51.114;13.666;2023-12-28T03:20:14;1.95;;;1.25;;
36353;SDS011;22383;51.114;13.666;2023-12-28T03:22:43;2.25;;;1.20;;
36353;SDS011;22383;51.114;13.666;2023-12-28T03:25:10;1.20;;;0.82;;
36353;SDS011;22383;51.114;13.666;2023-12-28T03:27:37;1.42;;;0.90;;
36353;SDS011;22383;51.114;13.666;2023-12-28T03:30:04;1.08;;;0.90;;
36353;SDS011;22383;51.114;13.666;2023-12-28T03:32:32;1.33;;;0.98;;
36353;SDS011;22383;51.114;13.666;2023-12-28T03:34:59;5.47;;;1.10;;
36353;SDS011;22383;51.114;13.666;2023-12-28T03:37:26;2.08;;;1.00;;
36353;SDS011;22383;51.114;13.666;2023-12-28T03:39:53;2.65;;;1.25;;
36353;SDS011;22383;51.114;13.666;2023-12-28T03:42:20;1.75;;;1.20;;
36353;SDS011;22383;51.114;13.666;2023-12-28T03:44:49;1.92;;;0.98;;
36353;SDS011;22383;51.114;13.666;2023-12-28T03:47:16;2.85;;;1.25;;
36353;SDS011;22383;51.114;13.666;2023-12-28T03:49:43;3.05;;;1.00;;
36353;SDS011;22383;51.114;13.666;2023-12-28T03:52:12;2.20;;;1.02;;
36353;SDS011;22383;51.114;13.666;2023-12-28T03:54:39;3.20;;;1.40;;
36353;SDS011;22383;51.114;13.666;2023-12-28T03:57:07;1.73;;;1.10;;
36353;SDS011;22383;51.114;13.666;2023-12-28T03:59:34;1.85;;;0.82;;
36353;SDS011;22383;51.114;13.666;2023-12-28T04:02:01;1.30;;;1.10;;
36353;SDS011;22383;51.114;13.666;2023-12-28T04:04:28;2.35;;;1.40;;
36353;SDS011;22383;51.114;13.666;2023-12-28T04:06:55;5.65;;;0.98;;
36353;SDS011;22383;51.114;13.666;2023-12-28T04:09:24;4.72;;;1.25;;
36353;SDS011;22383;51.114;13.666;2023-12-28T04:11:51;2.00;;;1.05;;
36353;SDS011;22383;51.114;13.666;2023-12-28T04:14:18;1.67;;;1.30;;
36353;SDS011;22383;51.114;13.666;2023-12-28T04:16:46;2.13;;;1.10;;
36353;SDS011;22383;51.114;13.666;2023-12-28T04:19:13;1.80;;;1.40;;
36353;SDS011;22383;51.114;13.666;2023-12-28T04:21:44;1.70;;;1.08;;
36353;SDS011;22383;51.114;13.666;2023-12-28T04:24:11;3.90;;;1.23;;
36353;SDS011;22383;51.114;13.666;2023-12-28T04:26:38;2.30;;;1.63;;
36353;SDS011;22383;51.114;13.666;2023-12-28T04:29:07;1.20;;;1.02;;
36353;SDS011;22383;51.114;13.666;2023-12-28T04:31:39;2.13;;;1.30;;
36353;SDS011;22383;51.114;13.666;2023-12-28T04:34:07;2.08;;;1.15;;
36353;SDS011;22383;51.114;13.666;2023-12-28T04:39:09;1.95;;;1.30;;
36353;SDS011;22383;51.114;13.666;2023-12-28T04:41:36;1.70;;;1.10;;
36353;SDS011;22383;51.114;13.666;2023-12-28T04:44:03;1.90;;;1.20;;
36353;SDS011;22383;51.114;13.666;2023-12-28T04:46:31;2.70;;;1.27;;
36353;SDS011;22383;51.114;13.666;2023-12-28T04:48:58;2.47;;;1.27;;
36353;SDS011;22383;51.114;13.666;2023-12-28T04:51:25;3.95;;;1.50;;
36353;SDS011;22383;51.114;13.666;2023-12-28T04:53:52;2.33;;;1.20;;
36353;SDS011;22383;51.114;13.666;2023-12-28T04:56:19;2.03;;;1.17;;
36353;SDS011;22383;51.114;13.666;2023-12-28T04:58:48;3.08;;;1.60;;
36353;SDS011;22383;51.114;13.666;2023-12-28T05:01:15;2.78;;;1.40;;
36353;SDS011;22383;51.114;13.666;2023-12-28T05:03:42;2.33;;;1.23;;
36353;SDS011;22383;51.114;13.666;2023-12-28T05:06:09;3.25;;;1.30;;
36353;SDS011;22383;51.114;13.666;2023-12-28T05:08:36;4.68;;;1.50;;
36353;SDS011;22383;51.114;13.666;2023-12-28T05:11:05;3.72;;;1.60;;
36353;SDS011;22383;51.114;13.666;2023-12-28T05:13:32;5.25;;;1.83;;
36353;SDS011;22383;51.114;13.666;2023-12-28T05:16:01;2.53;;;1.58;;
36353;SDS011;22383;51.114;13.666;2023-12-28T05:18:28;1.63;;;1.30;;
36353;SDS011;22383;51.114;13.666;2023-12-28T05:20:55;3.00;;;1.75;;
36353;SDS011;22383;51.114;13.666;2023-12-28T05:23:23;4.80;;;1.63;;
36353;SDS011;22383;51.114;13.666;2023-12-28T05:25:50;3.92;;;1.42;;
36353;SDS011;22383;51.114;13.666;2023-12-28T05:28:17;2.38;;;1.52;;
36353;SDS011;22383;51.114;13.666;2023-12-28T05:30:44;2.33;;;1.38;;
36353;SDS011;22383;51.114;13.666;2023-12-28T05:33:11;4.60;;;1.77;;
36353;SDS011;22383;51.114;13.666;2023-12-28T05:35:39;3.13;;;1.35;;
36353;SDS011;22383;51.114;13.666;2023-12-28T05:38:06;3.70;;;1.42;;
36353;SDS011;22383;51.114;13.666;2023-12-28T05:40:33;2.83;;;1.17;;
36353;SDS011;22383;51.114;13.666;2023-12-28T05:43:00;2.08;;;1.20;;
36353;SDS011;22383;51.114;13.666;2023-12-28T05:45:27;2.88;;;1.73;;
36353;SDS011;22383;51.114;13.666;2023-12-28T05:47:54;2.70;;;1.23;;
36353;SDS011;22383;51.114;13.666;2023-12-28T05:50:21;2.88;;;1.40;;
36353;SDS011;22383;51.114;13.666;2023-12-28T05:52:49;3.28;;;2.00;;
36353;SDS011;22383;51.114;13.666;2023-12-28T05:55:16;3.60;;;1.60;;
36353;SDS011;22383;51.114;13.666;2023-12-28T05:57:43;4.93;;;1.67;;
36353;SDS011;22383;51.114;13.666;2023-12-28T06:00:11;3.95;;;1.83;;
36353;SDS011;22383;51.114;13.666;2023-12-28T06:02:39;7.55;;;1.48;;
36353;SDS011;22383;51.114;13.666;2023-12-28T06:05:06;4.47;;;1.60;;
36353;SDS011;22383;51.114;13.666;2023-12-28T06:07:33;4.82;;;1.58;;
36353;SDS011;22383;51.114;13.666;2023-12-28T06:10:00;1.90;;;1.20;;
36353;SDS011;22383;51.114;13.666;2023-12-28T06:12:28;3.00;;;1.80;;
36353;SDS011;22383;51.114;13.666;2023-12-28T06:14:55;5.25;;;1.55;;
36353;SDS011;22383;51.114;13.666;2023-12-28T06:17:22;1.95;;;1.15;;
36353;SDS011;22383;51.114;13.666;2023-12-28T06:19:50;3.40;;;1.88;;
36353;SDS011;22383;51.114;13.666;2023-12-28T06:22:17;2.53;;;1.40;;
36353;SDS011;22383;51.114;13.666;2023-12-28T06:24:44;4.18;;;1.50;;
36353;SDS011;22383;51.114;13.666;2023-12-28T06:27:12;2.05;;;1.42;;
36353;SDS011;22383;51.114;13.666;2023-12-28T06:29:39;2.75;;;1.45;;
36353;SDS011;22383;51.114;13.666;2023-12-28T06:32:07;7.95;;;1.75;;
36353;SDS011;22383;51.114;13.666;2023-12-28T06:34:34;4.15;;;1.80;;
36353;SDS011;22383;51.114;13.666;2023-12-28T06:37:01;6.07;;;1.30;;
36353;SDS011;22383;51.114;13.666;2023-12-28T06:39:28;4.05;;;1.65;;
36353;SDS011;22383;51.114;13.666;2023-12-28T06:41:55;2.40;;;1.30;;
36353;SDS011;22383;51.114;13.666;2023-12-28T06:44:22;4.90;;;1.47;;
36353;SDS011;22383;51.114;13.666;2023-12-28T06:46:50;2.55;;;1.42;;
36353;SDS011;22383;51.114;13.666;2023-12-28T06:49:17;4.00;;;1.70;;
36353;SDS011;22383;51.114;13.666;2023-12-28T06:51:44;3.67;;;1.73;;
36353;SDS011;22383;51.114;13.666;2023-12-28T06:54:13;3.67;;;1.70;;
36353;SDS011;22383;51.114;13.666;2023-12-28T06:56:42;3.63;;;1.60;;
36353;SDS011;22383;51.114;13.666;2023-12-28T06:59:09;2.70;;;1.60;;
36353;SDS011;22383;51.114;13.666;2023-12-28T07:01:39;2.03;;;1.33;;
36353;SDS011;22383;51.114;13.666;2023-12-28T07:04:07;3.50;;;2.00;;
36353;SDS011;22383;51.114;13.666;2023-12-28T07:06:34;3.60;;;1.77;;
36353;SDS011;22383;51.114;13.666;2023-12-28T07:09:01;3.55;;;1.95;;
36353;SDS011;22383;51.114;13.666;2023-12-28T07:11:29;3.63;;;1.75;;
36353;SDS011;22383;51.114;13.666;2023-12-28T07:13:56;2.42;;;1.70;;
36353;SDS011;22383;51.114;13.666;2023-12-28T07:16:23;5.70;;;1.85;;
36353;SDS011;22383;51.114;13.666;2023-12-28T07:18:50;3.22;;;2.00;;
36353;SDS011;22383;51.114;13.666;2023-12-28T07:21:17;2.75;;;2.00;;
36353;SDS011;22383;51.114;13.666;2023-12-28T07:23:44;2.72;;;1.80;;
36353;SDS011;22383;51.114;13.666;2023-12-28T07:26:16;4.03;;;2.08;;
36353;SDS011;22383;51.114;13.666;2023-12-28T07:28:43;3.03;;;1.98;;
36353;SDS011;22383;51.114;13.666;2023-12-28T07:31:11;2.80;;;1.77;;
36353;SDS011;22383;51.114;13.666;2023-12-28T07:33:49;3.80;;;1.63;;
36353;SDS011;22383;51.114;13.666;2023-12-28T07:36:16;3.08;;;1.67;;
36353;SDS011;22383;51.114;13.666;2023-12-28T07:38:44;4.88;;;2.00;;
36353;SDS011;22383;51.114;13.666;2023-12-28T07:41:11;3.33;;;2.05;;
36353;SDS011;22383;51.114;13.666;2023-12-28T07:43:38;3.38;;;1.90;;
36353;SDS011;22383;51.114;13.666;2023-12-28T07:46:05;3.78;;;1.98;;
36353;SDS011;22383;51.114;13.666;2023-12-28T07:48:32;3.40;;;2.03;;
36353;SDS011;22383;51.114;13.666;2023-12-28T07:51:03;7.10;;;2.05;;
36353;SDS011;22383;51.114;13.666;2023-12-28T07:53:31;4.18;;;2.22;;
36353;SDS011;22383;51.114;13.666;2023-12-28T07:55:58;9.30;;;1.85;;
36353;SDS011;22383;51.114;13.666;2023-12-28T07:58:25;5.00;;;1.95;;
36353;SDS011;22383;51.114;13.666;2023-12-28T08:00:53;4.85;;;2.03;;
36353;SDS011;22383;51.114;13.666;2023-12-28T08:03:20;4.13;;;2.05;;
36353;SDS011;22383;51.114;13.666;2023-12-28T08:05:47;3.25;;;1.98;;
36353;SDS011;22383;51.114;13.666;2023-12-28T08:08:14;3.15;;;2.00;;
36353;SDS011;22383;51.114;13.666;2023-12-28T08:10:41;2.70;;;1.60;;
36353;SDS011;22383;51.114;13.666;2023-12-28T08:13:08;5.03;;;2.10;;
36353;SDS011;22383;51.114;13.666;2023-12-28T08:15:35;5.15;;;2.15;;
36353;SDS011;22383;51.114;13.666;2023-12-28T08:18:02;3.88;;;2.15;;
36353;SDS011;22383;51.114;13.666;2023-12-28T08:20:31;6.65;;;2.25;;
36353;SDS011;22383;51.114;13.666;2023-12-28T08:22:58;5.22;;;2.10;;
36353;SDS011;22383;51.114;13.666;2023-12-28T08:25:43;3.75;;;1.92;;
36353;SDS011;22383;51.114;13.666;2023-12-28T08:28:10;6.82;;;2.15;;
36353;SDS011;22383;51.114;13.666;2023-12-28T08:30:37;6.82;;;1.83;;
36353;SDS011;22383;51.114;13.666;2023-12-28T08:33:04;4.30;;;2.58;;
36353;SDS011;22383;51.114;13.666;2023-12-28T08:35:32;4.28;;;2.15;;
36353;SDS011;22383;51.114;13.666;2023-12-28T08:37:59;3.80;;;2.03;;
36353;SDS011;22383;51.114;13.666;2023-12-28T08:40:27;3.00;;;2.05;;
36353;SDS011;22383;51.114;13.666;2023-12-28T08:42:54;2.08;;;1.48;;
36353;SDS011;22383;51.114;13.666;2023-12-28T08:45:21;3.58;;;1.80;;
36353;SDS011;22383;51.114;13.666;2023-12-28T08:47:48;4.88;;;2.13;;
36353;SDS011;22383;51.114;13.666;2023-12-28T08:50:15;3.00;;;1.88;;
36353;SDS011;22383;51.114;13.666;2023-12-28T08:52:42;2.92;;;1.98;;
36353;SDS011;22383;51.114;13.666;2023-12-28T08:55:10;3.40;;;2.10;;
36353;SDS011;22383;51.114;13.666;2023-12-28T08:57:37;4.80;;;2.20;;
36353;SDS011;22383;51.114;13.666;2023-12-28T09:00:09;5.45;;;2.38;;
36353;SDS011;22383;51.114;13.666;2023-12-28T09:02:37;4.25;;;2.00;;
36353;SDS011;22383;51.114;13.666;2023-12-28T09:05:05;4.50;;;2.45;;
36353;SDS011;22383;51.114;13.666;2023-12-28T09:07:32;4.63;;;2.08;;
36353;SDS011;22383;51.114;13.666;2023-12-28T09:09:59;4.07;;;2.08;;
36353;SDS011;22383;51.114;13.666;2023-12-28T09:12:26;3.28;;;1.83;;
36353;SDS011;22383;51.114;13.666;2023-12-28T09:14:54;4.13;;;1.70;;
36353;SDS011;22383;51.114;13.666;2023-12-28T09:17:21;5.53;;;1.90;;
36353;SDS011;22383;51.114;13.666;2023-12-28T09:19:49;3.92;;;1.90;;
36353;SDS011;22383;51.114;13.666;2023-12-28T09:22:16;2.65;;;1.60;;
36353;SDS011;22383;51.114;13.666;2023-12-28T09:24:44;3.72;;;1.90;;
36353;SDS011;22383;51.114;13.666;2023-12-28T09:27:11;3.92;;;1.55;;
36353;SDS011;22383;51.114;13.666;2023-12-28T09:29:38;3.88;;;1.85;;
36353;SDS011;22383;51.114;13.666;2023-12-28T09:32:05;4.38;;;1.95;;
36353;SDS011;22383;51.114;13.666;2023-12-28T09:34:32;5.00;;;2.03;;
36353;SDS011;22383;51.114;13.666;2023-12-28T09:37:00;10.75;;;2.00;;
36353;SDS011;22383;51.114;13.666;2023-12-28T09:39:27;2.45;;;1.73;;
36353;SDS011;22383;51.114;13.666;2023-12-28T09:42:04;4.82;;;1.92;;
36353;SDS011;22383;51.114;13.666;2023-12-28T09:44:36;4.38;;;1.83;;
36353;SDS011;22383;51.114;13.666;2023-12-28T09:47:05;4.10;;;3.08;;
36353;SDS011;22383;51.114;13.666;2023-12-28T09:49:33;3.85;;;2.00;;
36353;SDS011;22383;51.114;13.666;2023-12-28T09:52:04;2.78;;;1.83;;
36353;SDS011;22383;51.114;13.666;2023-12-28T09:54:32;2.63;;;1.67;;
36353;SDS011;22383;51.114;13.666;2023-12-28T09:56:59;4.20;;;1.60;;
36353;SDS011;22383;51.114;13.666;2023-12-28T09:59:26;3.13;;;1.60;;
36353;SDS011;22383;51.114;13.666;2023-12-28T10:01:55;7.95;;;2.22;;
36353;SDS011;22383;51.114;13.666;2023-12-28T10:04:23;6.68;;;1.90;;
36353;SDS011;22383;51.114;13.666;2023-12-28T10:06:50;2.42;;;1.63;;
36353;SDS011;22383;51.114;13.666;2023-12-28T10:09:18;2.88;;;1.45;;
36353;SDS011;22383;51.114;13.666;2023-12-28T10:11:45;11.05;;;2.33;;
36353;SDS011;22383;51.114;13.666;2023-12-28T10:14:12;3.08;;;1.80;;
36353;SDS011;22383;51.114;13.666;2023-12-28T10:16:41;4.45;;;1.88;;
36353;SDS011;22383;51.114;13.666;2023-12-28T10:19:09;3.05;;;1.92;;
36353;SDS011;22383;51.114;13.666;2023-12-28T10:21:38;6.90;;;2.10;;
36353;SDS011;22383;51.114;13.666;2023-12-28T10:24:06;3.90;;;1.80;;
36353;SDS011;22383;51.114;13.666;2023-12-28T10:26:33;2.42;;;1.67;;
36353;SDS011;22383;51.114;13.666;2023-12-28T10:29:00;4.72;;;1.95;;
36353;SDS011;22383;51.114;13.666;2023-12-28T10:31:29;3.33;;;1.95;;
36353;SDS011;22383;51.114;13.666;2023-12-28T10:36:31;4.43;;;1.90;;
36353;SDS011;22383;51.114;13.666;2023-12-28T10:38:59;3.75;;;2.00;;
36353;SDS011;22383;51.114;13.666;2023-12-28T10:41:28;3.78;;;1.92;;
36353;SDS011;22383;51.114;13.666;2023-12-28T10:44:04;4.32;;;2.00;;
36353;SDS011;22383;51.114;13.666;2023-12-28T10:46:39;4.75;;;2.22;;
36353;SDS011;22383;51.114;13.666;2023-12-28T10:49:10;7.85;;;2.10;;
36353;SDS011;22383;51.114;13.666;2023-12-28T10:51:42;2.47;;;1.75;;
36353;SDS011;22383;51.114;13.666;2023-12-28T10:57:27;3.97;;;2.10;;
36353;SDS011;22383;51.114;13.666;2023-12-28T11:00:00;5.95;;;2.08;;
36353;SDS011;22383;51.114;13.666;2023-12-28T11:02:39;5.00;;;1.70;;
36353;SDS011;22383;51.114;13.666;2023-12-28T11:05:14;2.67;;;1.80;;
36353;SDS011;22383;51.114;13.666;2023-12-28T11:07:44;2.65;;;1.70;;
36353;SDS011;22383;51.114;13.666;2023-12-28T11:10:12;7.38;;;2.08;;
36353;SDS011;22383;51.114;13.666;2023-12-28T11:12:40;3.33;;;1.85;;
36353;SDS011;22383;51.114;13.666;2023-12-28T11:15:10;4.35;;;2.00;;
36353;SDS011;22383;51.114;13.666;2023-12-28T11:17:38;4.90;;;1.98;;
36353;SDS011;22383;51.114;13.666;2023-12-28T11:20:07;3.13;;;1.85;;
36353;SDS011;22383;51.114;13.666;2023-12-28T11:22:36;3.03;;;1.65;;
36353;SDS011;22383;51.114;13.666;2023-12-28T11:25:04;3.65;;;1.90;;
36353;SDS011;22383;51.114;13.666;2023-12-28T11:27:35;2.15;;;1.73;;
36353;SDS011;22383;51.114;13.666;2023-12-28T11:30:04;4.32;;;1.73;;
36353;SDS011;22383;51.114;13.666;2023-12-28T11:32:32;2.05;;;1.50;;
36353;SDS011;22383;51.114;13.666;2023-12-28T11:35:00;6.50;;;2.08;;
36353;SDS011;22383;51.114;13.666;2023-12-28T11:37:29;2.72;;;1.77;;
36353;SDS011;22383;51.114;13.666;2023-12-28T11:39:57;4.53;;;1.75;;
36353;SDS011;22383;51.114;13.666;2023-12-28T11:42:26;4.03;;;1.77;;
36353;SDS011;22383;51.114;13.666;2023-12-28T11:44:55;6.55;;;1.95;;
36353;SDS011;22383;51.114;13.666;2023-12-28T11:47:24;4.68;;;2.08;;
36353;SDS011;22383;51.114;13.666;2023-12-28T11:49:51;3.95;;;1.88;;
36353;SDS011;22383;51.114;13.666;2023-12-28T11:52:29;3.03;;;1.92;;
36353;SDS011;22383;51.114;13.666;2023-12-28T11:54:58;3.42;;;1.85;;
36353;SDS011;22383;51.114;13.666;2023-12-28T11:57:26;2.38;;;1.45;;
36353;SDS011;22383;51.114;13.666;2023-12-28T11:59:56;2.58;;;1.70;;
36353;SDS011;22383;51.114;13.666;2023-12-28T12:02:30;3.20;;;1.60;;
36353;SDS011;22383;51.114;13.666;2023-12-28T12:04:57;4.03;;;1.95;;
36353;SDS011;22383;51.114;13.666;2023-12-28T12:07:24;5.75;;;1.73;;
36353;SDS011;22383;51.114;13.666;2023-12-28T12:12:26;3.78;;;1.88;;
36353;SDS011;22383;51.114;13.666;2023-12-28T12:14:54;2.72;;;1.55;;
36353;SDS011;22383;51.114;13.666;2023-12-28T12:17:23;2.60;;;1.70;;
36353;SDS011;22383;51.114;13.666;2023-12-28T12:19:52;4.10;;;1.70;;
36353;SDS011;22383;51.114;13.666;2023-12-28T12:22:22;4.35;;;2.05;;
36353;SDS011;22383;51.114;13.666;2023-12-28T12:24:54;2.65;;;1.63;;
36353;SDS011;22383;51.114;13.666;2023-12-28T12:27:24;4.25;;;1.65;;
36353;SDS011;22383;51.114;13.666;2023-12-28T12:29:52;3.10;;;1.98;;
36353;SDS011;22383;51.114;13.666;2023-12-28T12:32:19;2.53;;;1.70;;
36353;SDS011;22383;51.114;13.666;2023-12-28T12:34:46;3.22;;;1.40;;
36353;SDS011;22383;51.114;13.666;2023-12-28T12:37:14;4.00;;;1.95;;
36353;SDS011;22383;51.114;13.666;2023-12-28T12:39:41;3.78;;;1.85;;
36353;SDS011;22383;51.114;13.666;2023-12-28T12:42:13;6.05;;;1.70;;
36353;SDS011;22383;51.114;13.666;2023-12-28T12:44:41;5.43;;;2.83;;
36353;SDS011;22383;51.114;13.666;2023-12-28T12:47:08;2.45;;;1.85;;
36353;SDS011;22383;51.114;13.666;2023-12-28T12:49:35;3.50;;;1.88;;
36353;SDS011;22383;51.114;13.666;2023-12-28T12:52:04;3.45;;;1.73;;
36353;SDS011;22383;51.114;13.666;2023-12-28T12:56:59;3.30;;;1.50;;
36353;SDS011;22383;51.114;13.666;2023-12-28T12:59:26;3.00;;;1.77;;
36353;SDS011;22383;51.114;13.666;2023-12-28T13:01:53;2.47;;;1.52;;
36353;SDS011;22383;51.114;13.666;2023-12-28T13:04:20;2.75;;;1.60;;
36353;SDS011;22383;51.114;13.666;2023-12-28T13:06:49;2.13;;;1.60;;
36353;SDS011;22383;51.114;13.666;2023-12-28T13:09:16;2.95;;;1.63;;
36353;SDS011;22383;51.114;13.666;2023-12-28T13:11:44;5.88;;;1.52;;
36353;SDS011;22383;51.114;13.666;2023-12-28T13:14:13;2.63;;;1.23;;
36353;SDS011;22383;51.114;13.666;2023-12-28T13:16:40;2.22;;;1.27;;
36353;SDS011;22383;51.114;13.666;2023-12-28T13:19:08;4.25;;;1.65;;
36353;SDS011;22383;51.114;13.666;2023-12-28T13:21:35;5.03;;;1.40;;
36353;SDS011;22383;51.114;13.666;2023-12-28T13:24:03;2.72;;;1.60;;
36353;SDS011;22383;51.114;13.666;2023-12-28T13:26:30;2.40;;;1.42;;
36353;SDS011;22383;51.114;13.666;2023-12-28T13:28:57;2.90;;;1.52;;
36353;SDS011;22383;51.114;13.666;2023-12-28T13:31:24;1.58;;;1.23;;
36353;SDS011;22383;51.114;13.666;2023-12-28T13:33:53;3.60;;;1.50;;
36353;SDS011;22383;51.114;13.666;2023-12-28T13:36:20;4.30;;;1.65;;
36353;SDS011;22383;51.114;13.666;2023-12-28T13:38:48;4.05;;;1.60;;
36353;SDS011;22383;51.114;13.666;2023-12-28T13:41:15;2.72;;;1.35;;
36353;SDS011;22383;51.114;13.666;2023-12-28T13:43:42;2.08;;;1.52;;
36353;SDS011;22383;51.114;13.666;2023-12-28T13:46:10;4.47;;;1.70;;
36353;SDS011;22383;51.114;13.666;2023-12-28T13:48:37;3.03;;;1.42;;
36353;SDS011;22383;51.114;13.666;2023-12-28T13:51:07;1.95;;;1.40;;
36353;SDS011;22383;51.114;13.666;2023-12-28T13:53:34;2.03;;;1.40;;
36353;SDS011;22383;51.114;13.666;2023-12-28T13:56:07;2.50;;;1.45;;
36353;SDS011;22383;51.114;13.666;2023-12-28T13:58:37;3.83;;;1.25;;
36353;SDS011;22383;51.114;13.666;2023-12-28T14:01:04;4.68;;;1.67;;
36353;SDS011;22383;51.114;13.666;2023-12-28T14:03:32;5.38;;;1.25;;
36353;SDS011;22383;51.114;13.666;2023-12-28T14:06:00;2.47;;;1.50;;
36353;SDS011;22383;51.114;13.666;2023-12-28T14:08:27;3.22;;;1.73;;
36353;SDS011;22383;51.114;13.666;2023-12-28T14:10:54;7.10;;;4.40;;
36353;SDS011;22383;51.114;13.666;2023-12-28T14:13:21;2.15;;;1.83;;
36353;SDS011;22383;51.114;13.666;2023-12-28T14:15:49;2.55;;;1.67;;
36353;SDS011;22383;51.114;13.666;2023-12-28T14:18:16;3.33;;;1.35;;
36353;SDS011;22383;51.114;13.666;2023-12-28T14:20:43;2.75;;;1.55;;
36353;SDS011;22383;51.114;13.666;2023-12-28T14:23:10;10.75;;;1.63;;
36353;SDS011;22383;51.114;13.666;2023-12-28T14:25:39;3.42;;;1.85;;
36353;SDS011;22383;51.114;13.666;2023-12-28T14:28:06;1.90;;;1.58;;
36353;SDS011;22383;51.114;13.666;2023-12-28T14:33:01;3.22;;;1.42;;
36353;SDS011;22383;51.114;13.666;2023-12-28T14:35:29;2.13;;;1.40;;
36353;SDS011;22383;51.114;13.666;2023-12-28T14:37:57;2.92;;;1.27;;
36353;SDS011;22383;51.114;13.666;2023-12-28T14:40:24;2.45;;;1.48;;
36353;SDS011;22383;51.114;13.666;2023-12-28T14:42:51;2.67;;;1.60;;
36353;SDS011;22383;51.114;13.666;2023-12-28T14:45:19;2.72;;;1.25;;
36353;SDS011;22383;51.114;13.666;2023-12-28T14:47:46;2.50;;;1.33;;
36353;SDS011;22383;51.114;13.666;2023-12-28T14:50:13;2.15;;;1.25;;
36353;SDS011;22383;51.114;13.666;2023-12-28T14:52:40;3.08;;;1.58;;
36353;SDS011;22383;51.114;13.666;2023-12-28T14:55:09;6.68;;;1.45;;
36353;SDS011;22383;51.114;13.666;2023-12-28T14:57:37;4.28;;;1.65;;
36353;SDS011;22383;51.114;13.666;2023-12-28T15:00:05;2.53;;;1.17;;
36353;SDS011;22383;51.114;13.666;2023-12-28T15:02:32;6.80;;;1.52;;